Macon, Robins Air Force Base (KWRB)

NameRobins Air Force Base
CityMacon
CountryUnited States
ICAOKWRB
IATAWRB
Altitude90 m
CoordinatesGoogle Map
Live Air TrafficLiveATC.net
METARKWRB 212356Z 20006KT 10SM CLR 29/21 A3004 RMK AO2A SLP172 T02940213 10350 20293 52006
2019-08-21 23:56:00 Wind: South (200°) 3.09 m/s - Visibility: 16093.4 m - Temperature: 29 °C - Dew point: 21 °C - Humidity: 62% - Pressure: 1017.27 hPa

Sorry, no flights used the airport in this database.